Weather at Calgary / Christiansen Field

Public forecast

Using degrees Celsius for public forecast. Weather courtesy of forecast.io.

Closest aviation weather report (METAR) to Calgary / Christiansen Field

Closest report is Calgary International Airport, 19.2 nm (35.6 km) N.

2024/05/30 05:00 (retrieved 1 hour ago)

CYYC 300500Z 02010KT 15SM SCT056 BKN140 BKN220 07/02 A2993 RMK SC3AC3CI1 SLP151

Closest aviation forecast (TAF) to Calgary / Christiansen Field

Closest forecast is Calgary International Airport, 19.2 nm (35.6 km) N.

2024/05/30 06:42 (retrieved 0 seconds ago)

TAF CYYC 300540Z 3006/3106 02010KT P6SM SCT140 BKN220 TEMPO 3006/3016 BKN070 BKN140 BECMG 3006/3008 29010KT FM301600 32012KT P6SM VCSH BKN080 FM301900 32018KT P6SM VCTS BKN060CB BKN080 TEMPO 3019/3102 P6SM -SHRA BKN070 FM310200 33012KT P6SM SCT070 BKN200 TEMPO 3102/3105 BKN070 FM310500 29010KT P6SM FEW070 SCT240 RMK NXT FCST BY 300900Z